sensor_id;sensor_type;location;lat;lon;timestamp;P1;durP1;ratioP1;P2;durP2;ratioP2
3491;SDS011;1760;52.480;13.422;2023-12-20T00:02:05;5.67;;;3.37;;
3491;SDS011;1760;52.480;13.422;2023-12-20T00:04:32;5.10;;;4.10;;
3491;SDS011;1760;52.480;13.422;2023-12-20T00:06:58;5.90;;;4.10;;
3491;SDS011;1760;52.480;13.422;2023-12-20T00:09:26;5.10;;;4.17;;
3491;SDS011;1760;52.480;13.422;2023-12-20T00:11:53;4.83;;;3.30;;
3491;SDS011;1760;52.480;13.422;2023-12-20T00:14:20;6.67;;;3.77;;
3491;SDS011;1760;52.480;13.422;2023-12-20T00:16:48;5.60;;;3.80;;
3491;SDS011;1760;52.480;13.422;2023-12-20T00:19:15;5.20;;;3.80;;
3491;SDS011;1760;52.480;13.422;2023-12-20T00:21:42;4.20;;;3.80;;
3491;SDS011;1760;52.480;13.422;2023-12-20T00:24:09;6.50;;;4.40;;
3491;SDS011;1760;52.480;13.422;2023-12-20T00:26:35;3.70;;;3.30;;
3491;SDS011;1760;52.480;13.422;2023-12-20T00:29:02;6.10;;;5.07;;
3491;SDS011;1760;52.480;13.422;2023-12-20T00:31:29;5.30;;;3.50;;
3491;SDS011;1760;52.480;13.422;2023-12-20T00:33:57;4.33;;;3.90;;
3491;SDS011;1760;52.480;13.422;2023-12-20T00:36:24;10.23;;;5.10;;
3491;SDS011;1760;52.480;13.422;2023-12-20T00:38:51;8.13;;;4.23;;
3491;SDS011;1760;52.480;13.422;2023-12-20T00:41:18;3.30;;;2.30;;
3491;SDS011;1760;52.480;13.422;2023-12-20T00:43:45;3.90;;;3.50;;
3491;SDS011;1760;52.480;13.422;2023-12-20T00:46:12;4.30;;;3.80;;
3491;SDS011;1760;52.480;13.422;2023-12-20T00:48:38;4.90;;;4.03;;
3491;SDS011;1760;52.480;13.422;2023-12-20T00:51:08;5.93;;;4.10;;
3491;SDS011;1760;52.480;13.422;2023-12-20T00:53:35;4.43;;;4.03;;
3491;SDS011;1760;52.480;13.422;2023-12-20T00:56:02;3.90;;;3.47;;
3491;SDS011;1760;52.480;13.422;2023-12-20T00:58:29;4.60;;;3.10;;
3491;SDS011;1760;52.480;13.422;2023-12-20T01:00:56;4.27;;;3.37;;
3491;SDS011;1760;52.480;13.422;2023-12-20T01:03:23;4.87;;;2.70;;
3491;SDS011;1760;52.480;13.422;2023-12-20T01:05:50;4.97;;;3.80;;
3491;SDS011;1760;52.480;13.422;2023-12-20T01:08:18;3.93;;;2.87;;
3491;SDS011;1760;52.480;13.422;2023-12-20T01:10:45;3.70;;;2.67;;
3491;SDS011;1760;52.480;13.422;2023-12-20T01:13:12;4.23;;;3.00;;
3491;SDS011;1760;52.480;13.422;2023-12-20T01:15:39;4.50;;;3.63;;
3491;SDS011;1760;52.480;13.422;2023-12-20T01:18:06;4.70;;;3.70;;
3491;SDS011;1760;52.480;13.422;2023-12-20T01:20:33;4.37;;;3.97;;
3491;SDS011;1760;52.480;13.422;2023-12-20T01:23:01;5.60;;;4.10;;
3491;SDS011;1760;52.480;13.422;2023-12-20T01:25:29;4.10;;;3.13;;
3491;SDS011;1760;52.480;13.422;2023-12-20T01:27:56;3.87;;;2.90;;
3491;SDS011;1760;52.480;13.422;2023-12-20T01:30:23;6.40;;;4.10;;
3491;SDS011;1760;52.480;13.422;2023-12-20T01:32:50;4.87;;;2.93;;
3491;SDS011;1760;52.480;13.422;2023-12-20T01:35:17;3.70;;;2.90;;
3491;SDS011;1760;52.480;13.422;2023-12-20T01:37:44;4.10;;;3.40;;
3491;SDS011;1760;52.480;13.422;2023-12-20T01:40:11;5.93;;;3.03;;
3491;SDS011;1760;52.480;13.422;2023-12-20T01:42:39;3.30;;;3.00;;
3491;SDS011;1760;52.480;13.422;2023-12-20T01:45:08;4.10;;;3.23;;
3491;SDS011;1760;52.480;13.422;2023-12-20T01:47:35;3.77;;;2.77;;
3491;SDS011;1760;52.480;13.422;2023-12-20T01:50:03;3.43;;;3.10;;
3491;SDS011;1760;52.480;13.422;2023-12-20T01:52:33;3.13;;;2.50;;
3491;SDS011;1760;52.480;13.422;2023-12-20T01:55:01;3.67;;;2.83;;
3491;SDS011;1760;52.480;13.422;2023-12-20T01:57:31;3.73;;;2.67;;
3491;SDS011;1760;52.480;13.422;2023-12-20T02:00:00;2.70;;;1.93;;
3491;SDS011;1760;52.480;13.422;2023-12-20T02:02:28;3.20;;;2.27;;
3491;SDS011;1760;52.480;13.422;2023-12-20T02:04:56;5.07;;;3.83;;
3491;SDS011;1760;52.480;13.422;2023-12-20T02:07:23;2.87;;;2.57;;
3491;SDS011;1760;52.480;13.422;2023-12-20T02:09:51;3.80;;;2.80;;
3491;SDS011;1760;52.480;13.422;2023-12-20T02:12:18;2.87;;;2.40;;
3491;SDS011;1760;52.480;13.422;2023-12-20T02:14:46;3.80;;;3.00;;
3491;SDS011;1760;52.480;13.422;2023-12-20T02:17:14;3.83;;;3.23;;
3491;SDS011;1760;52.480;13.422;2023-12-20T02:19:41;4.47;;;2.90;;
3491;SDS011;1760;52.480;13.422;2023-12-20T02:22:10;3.07;;;2.77;;
3491;SDS011;1760;52.480;13.422;2023-12-20T02:24:37;3.40;;;3.10;;
3491;SDS011;1760;52.480;13.422;2023-12-20T02:27:04;3.27;;;2.57;;
3491;SDS011;1760;52.480;13.422;2023-12-20T02:29:33;5.70;;;4.17;;
3491;SDS011;1760;52.480;13.422;2023-12-20T02:32:00;3.63;;;2.83;;
3491;SDS011;1760;52.480;13.422;2023-12-20T02:34:27;4.00;;;3.10;;
3491;SDS011;1760;52.480;13.422;2023-12-20T02:36:54;4.13;;;3.20;;
3491;SDS011;1760;52.480;13.422;2023-12-20T02:39:22;4.63;;;2.83;;
3491;SDS011;1760;52.480;13.422;2023-12-20T02:41:49;3.40;;;2.93;;
3491;SDS011;1760;52.480;13.422;2023-12-20T02:44:15;4.37;;;2.90;;
3491;SDS011;1760;52.480;13.422;2023-12-20T02:46:42;4.23;;;3.00;;
3491;SDS011;1760;52.480;13.422;2023-12-20T02:49:09;6.90;;;4.30;;
3491;SDS011;1760;52.480;13.422;2023-12-20T02:51:36;5.33;;;4.33;;
3491;SDS011;1760;52.480;13.422;2023-12-20T02:54:04;4.40;;;3.30;;
3491;SDS011;1760;52.480;13.422;2023-12-20T02:56:32;7.77;;;3.80;;
3491;SDS011;1760;52.480;13.422;2023-12-20T02:58:59;5.33;;;3.83;;
3491;SDS011;1760;52.480;13.422;2023-12-20T03:01:26;9.90;;;4.83;;
3491;SDS011;1760;52.480;13.422;2023-12-20T03:03:54;5.60;;;4.43;;
3491;SDS011;1760;52.480;13.422;2023-12-20T03:06:21;6.43;;;3.93;;
3491;SDS011;1760;52.480;13.422;2023-12-20T03:08:47;5.40;;;3.40;;
3491;SDS011;1760;52.480;13.422;2023-12-20T03:11:14;7.10;;;5.13;;
3491;SDS011;1760;52.480;13.422;2023-12-20T03:13:43;5.57;;;4.00;;
3491;SDS011;1760;52.480;13.422;2023-12-20T03:16:09;7.30;;;4.13;;
3491;SDS011;1760;52.480;13.422;2023-12-20T03:18:36;7.07;;;3.60;;
3491;SDS011;1760;52.480;13.422;2023-12-20T03:21:04;6.60;;;3.87;;
3491;SDS011;1760;52.480;13.422;2023-12-20T03:23:31;3.33;;;2.77;;
3491;SDS011;1760;52.480;13.422;2023-12-20T03:25:58;4.03;;;2.63;;
3491;SDS011;1760;52.480;13.422;2023-12-20T03:28:25;3.97;;;2.67;;
3491;SDS011;1760;52.480;13.422;2023-12-20T03:30:54;5.40;;;3.23;;
3491;SDS011;1760;52.480;13.422;2023-12-20T03:33:21;6.00;;;2.97;;
3491;SDS011;1760;52.480;13.422;2023-12-20T03:35:47;6.07;;;2.83;;
3491;SDS011;1760;52.480;13.422;2023-12-20T03:38:14;3.07;;;2.60;;
3491;SDS011;1760;52.480;13.422;2023-12-20T03:40:41;5.73;;;3.33;;
3491;SDS011;1760;52.480;13.422;2023-12-20T03:43:08;11.10;;;2.93;;
3491;SDS011;1760;52.480;13.422;2023-12-20T03:45:35;7.83;;;2.83;;
3491;SDS011;1760;52.480;13.422;2023-12-20T03:48:04;3.40;;;2.70;;
3491;SDS011;1760;52.480;13.422;2023-12-20T03:50:31;3.43;;;2.40;;
3491;SDS011;1760;52.480;13.422;2023-12-20T03:52:58;5.20;;;2.30;;
3491;SDS011;1760;52.480;13.422;2023-12-20T03:55:25;5.20;;;2.43;;
3491;SDS011;1760;52.480;13.422;2023-12-20T03:57:52;5.10;;;2.03;;
3491;SDS011;1760;52.480;13.422;2023-12-20T04:00:19;3.37;;;2.30;;
3491;SDS011;1760;52.480;13.422;2023-12-20T04:02:45;4.70;;;2.13;;
3491;SDS011;1760;52.480;13.422;2023-12-20T04:05:14;3.00;;;2.10;;
3491;SDS011;1760;52.480;13.422;2023-12-20T04:07:41;5.40;;;1.87;;
3491;SDS011;1760;52.480;13.422;2023-12-20T04:10:08;2.43;;;1.60;;
3491;SDS011;1760;52.480;13.422;2023-12-20T04:12:35;3.60;;;2.00;;
3491;SDS011;1760;52.480;13.422;2023-12-20T04:15:02;11.40;;;3.13;;
3491;SDS011;1760;52.480;13.422;2023-12-20T04:17:34;2.77;;;2.27;;
3491;SDS011;1760;52.480;13.422;2023-12-20T04:20:00;4.40;;;1.87;;
3491;SDS011;1760;52.480;13.422;2023-12-20T04:22:29;5.60;;;1.90;;
3491;SDS011;1760;52.480;13.422;2023-12-20T04:24:56;2.87;;;1.70;;
3491;SDS011;1760;52.480;13.422;2023-12-20T04:27:22;4.00;;;2.30;;
3491;SDS011;1760;52.480;13.422;2023-12-20T04:29:49;9.73;;;1.87;;
3491;SDS011;1760;52.480;13.422;2023-12-20T04:32:16;1.90;;;1.70;;
3491;SDS011;1760;52.480;13.422;2023-12-20T04:34:43;4.80;;;1.80;;
3491;SDS011;1760;52.480;13.422;2023-12-20T04:37:09;4.33;;;2.33;;
3491;SDS011;1760;52.480;13.422;2023-12-20T04:39:37;3.07;;;1.43;;
3491;SDS011;1760;52.480;13.422;2023-12-20T04:42:04;4.97;;;2.40;;
3491;SDS011;1760;52.480;13.422;2023-12-20T04:44:31;3.40;;;1.80;;
3491;SDS011;1760;52.480;13.422;2023-12-20T04:46:58;4.30;;;1.27;;
3491;SDS011;1760;52.480;13.422;2023-12-20T04:49:25;5.10;;;1.83;;
3491;SDS011;1760;52.480;13.422;2023-12-20T04:51:52;9.70;;;2.20;;
3491;SDS011;1760;52.480;13.422;2023-12-20T04:54:19;4.43;;;1.77;;
3491;SDS011;1760;52.480;13.422;2023-12-20T04:56:47;4.93;;;1.63;;
3491;SDS011;1760;52.480;13.422;2023-12-20T04:59:14;7.50;;;1.90;;
3491;SDS011;1760;52.480;13.422;2023-12-20T05:01:43;3.13;;;1.67;;
3491;SDS011;1760;52.480;13.422;2023-12-20T05:04:10;6.13;;;2.30;;
3491;SDS011;1760;52.480;13.422;2023-12-20T05:06:37;3.67;;;1.60;;
3491;SDS011;1760;52.480;13.422;2023-12-20T05:09:03;9.70;;;1.43;;
3491;SDS011;1760;52.480;13.422;2023-12-20T05:11:30;2.63;;;1.97;;
3491;SDS011;1760;52.480;13.422;2023-12-20T05:13:58;2.57;;;1.97;;
3491;SDS011;1760;52.480;13.422;2023-12-20T05:16:25;7.10;;;2.70;;
3491;SDS011;1760;52.480;13.422;2023-12-20T05:18:52;4.03;;;1.90;;
3491;SDS011;1760;52.480;13.422;2023-12-20T05:21:23;3.67;;;1.47;;
3491;SDS011;1760;52.480;13.422;2023-12-20T05:23:50;4.07;;;1.60;;
3491;SDS011;1760;52.480;13.422;2023-12-20T05:26:17;3.17;;;1.80;;
3491;SDS011;1760;52.480;13.422;2023-12-20T05:28:44;9.30;;;1.73;;
3491;SDS011;1760;52.480;13.422;2023-12-20T05:31:14;5.87;;;2.20;;
3491;SDS011;1760;52.480;13.422;2023-12-20T05:33:41;7.77;;;2.00;;
3491;SDS011;1760;52.480;13.422;2023-12-20T05:36:08;7.40;;;2.07;;
3491;SDS011;1760;52.480;13.422;2023-12-20T05:38:38;11.53;;;1.67;;
3491;SDS011;1760;52.480;13.422;2023-12-20T05:41:05;6.50;;;2.40;;
3491;SDS011;1760;52.480;13.422;2023-12-20T05:43:32;3.57;;;1.63;;
3491;SDS011;1760;52.480;13.422;2023-12-20T05:45:59;2.70;;;1.67;;
3491;SDS011;1760;52.480;13.422;2023-12-20T05:48:27;8.53;;;2.07;;
3491;SDS011;1760;52.480;13.422;2023-12-20T05:50:54;3.70;;;1.73;;
3491;SDS011;1760;52.480;13.422;2023-12-20T05:53:23;3.20;;;1.73;;
3491;SDS011;1760;52.480;13.422;2023-12-20T05:55:53;4.10;;;1.97;;
3491;SDS011;1760;52.480;13.422;2023-12-20T05:58:20;1.63;;;1.10;;
3491;SDS011;1760;52.480;13.422;2023-12-20T06:00:47;4.93;;;1.97;;
3491;SDS011;1760;52.480;13.422;2023-12-20T06:03:14;1.50;;;1.20;;
3491;SDS011;1760;52.480;13.422;2023-12-20T06:05:43;5.70;;;2.13;;
3491;SDS011;1760;52.480;13.422;2023-12-20T06:08:10;3.77;;;2.10;;
3491;SDS011;1760;52.480;13.422;2023-12-20T06:10:36;3.40;;;1.53;;
3491;SDS011;1760;52.480;13.422;2023-12-20T06:13:03;4.63;;;1.30;;
3491;SDS011;1760;52.480;13.422;2023-12-20T06:15:31;11.03;;;2.50;;
3491;SDS011;1760;52.480;13.422;2023-12-20T06:17:58;2.60;;;1.30;;
3491;SDS011;1760;52.480;13.422;2023-12-20T06:20:26;3.10;;;1.70;;
3491;SDS011;1760;52.480;13.422;2023-12-20T06:22:54;9.43;;;2.10;;
3491;SDS011;1760;52.480;13.422;2023-12-20T06:25:21;2.10;;;1.30;;
3491;SDS011;1760;52.480;13.422;2023-12-20T06:27:48;5.10;;;1.60;;
3491;SDS011;1760;52.480;13.422;2023-12-20T06:30:15;4.90;;;1.90;;
3491;SDS011;1760;52.480;13.422;2023-12-20T06:32:42;6.53;;;2.30;;
3491;SDS011;1760;52.480;13.422;2023-12-20T06:35:09;2.60;;;1.80;;
3491;SDS011;1760;52.480;13.422;2023-12-20T06:37:36;2.80;;;2.03;;
3491;SDS011;1760;52.480;13.422;2023-12-20T06:40:05;3.57;;;1.40;;
3491;SDS011;1760;52.480;13.422;2023-12-20T06:42:32;4.73;;;2.00;;
3491;SDS011;1760;52.480;13.422;2023-12-20T06:44:59;9.10;;;2.20;;
3491;SDS011;1760;52.480;13.422;2023-12-20T06:47:26;3.30;;;1.63;;
3491;SDS011;1760;52.480;13.422;2023-12-20T06:49:53;4.37;;;1.93;;
3491;SDS011;1760;52.480;13.422;2023-12-20T06:52:20;3.03;;;1.73;;
3491;SDS011;1760;52.480;13.422;2023-12-20T06:54:47;2.87;;;2.10;;
3491;SDS011;1760;52.480;13.422;2023-12-20T06:57:15;3.90;;;1.97;;
3491;SDS011;1760;52.480;13.422;2023-12-20T06:59:42;2.97;;;2.00;;
3491;SDS011;1760;52.480;13.422;2023-12-20T07:02:09;4.53;;;1.40;;
3491;SDS011;1760;52.480;13.422;2023-12-20T07:04:38;7.43;;;2.33;;
3491;SDS011;1760;52.480;13.422;2023-12-20T07:07:05;2.43;;;1.90;;
3491;SDS011;1760;52.480;13.422;2023-12-20T07:09:33;8.57;;;2.00;;
3491;SDS011;1760;52.480;13.422;2023-12-20T07:12:00;6.50;;;1.77;;
3491;SDS011;1760;52.480;13.422;2023-12-20T07:14:28;7.63;;;1.70;;
3491;SDS011;1760;52.480;13.422;2023-12-20T07:16:55;12.87;;;1.60;;
3491;SDS011;1760;52.480;13.422;2023-12-20T07:19:22;3.63;;;1.63;;
3491;SDS011;1760;52.480;13.422;2023-12-20T07:21:49;5.13;;;1.70;;
3491;SDS011;1760;52.480;13.422;2023-12-20T07:24:16;9.93;;;2.47;;
3491;SDS011;1760;52.480;13.422;2023-12-20T07:26:42;7.60;;;2.13;;
3491;SDS011;1760;52.480;13.422;2023-12-20T07:29:09;3.77;;;1.83;;
3491;SDS011;1760;52.480;13.422;2023-12-20T07:31:37;6.30;;;1.93;;
3491;SDS011;1760;52.480;13.422;2023-12-20T07:34:04;9.93;;;2.60;;
3491;SDS011;1760;52.480;13.422;2023-12-20T07:36:31;6.73;;;2.67;;
3491;SDS011;1760;52.480;13.422;2023-12-20T07:38:58;5.63;;;2.37;;
3491;SDS011;1760;52.480;13.422;2023-12-20T07:41:25;5.57;;;1.90;;
3491;SDS011;1760;52.480;13.422;2023-12-20T07:43:52;4.87;;;2.67;;
3491;SDS011;1760;52.480;13.422;2023-12-20T07:46:20;3.47;;;2.00;;
3491;SDS011;1760;52.480;13.422;2023-12-20T07:48:50;8.13;;;3.13;;
3491;SDS011;1760;52.480;13.422;2023-12-20T07:51:17;12.43;;;1.90;;
3491;SDS011;1760;52.480;13.422;2023-12-20T07:53:44;4.50;;;1.90;;
3491;SDS011;1760;52.480;13.422;2023-12-20T07:56:14;4.87;;;1.33;;
3491;SDS011;1760;52.480;13.422;2023-12-20T07:58:41;8.23;;;2.10;;
3491;SDS011;1760;52.480;13.422;2023-12-20T08:01:08;3.70;;;1.57;;
3491;SDS011;1760;52.480;13.422;2023-12-20T08:03:35;7.67;;;1.97;;
3491;SDS011;1760;52.480;13.422;2023-12-20T08:06:04;5.17;;;1.77;;
3491;SDS011;1760;52.480;13.422;2023-12-20T08:08:31;12.20;;;2.40;;
3491;SDS011;1760;52.480;13.422;2023-12-20T08:10:58;6.90;;;1.40;;
3491;SDS011;1760;52.480;13.422;2023-12-20T08:13:25;4.60;;;1.40;;
3491;SDS011;1760;52.480;13.422;2023-12-20T08:15:52;3.13;;;1.03;;
3491;SDS011;1760;52.480;13.422;2023-12-20T08:18:21;11.63;;;2.67;;
3491;SDS011;1760;52.480;13.422;2023-12-20T08:20:48;3.13;;;1.43;;
3491;SDS011;1760;52.480;13.422;2023-12-20T08:23:16;6.30;;;1.90;;
3491;SDS011;1760;52.480;13.422;2023-12-20T08:25:43;5.80;;;2.20;;
3491;SDS011;1760;52.480;13.422;2023-12-20T08:28:11;8.13;;;2.47;;
3491;SDS011;1760;52.480;13.422;2023-12-20T08:30:38;4.10;;;2.27;;
3491;SDS011;1760;52.480;13.422;2023-12-20T08:33:05;7.27;;;2.13;;
3491;SDS011;1760;52.480;13.422;2023-12-20T08:35:36;2.20;;;1.27;;
3491;SDS011;1760;52.480;13.422;2023-12-20T08:38:03;3.40;;;1.90;;
3491;SDS011;1760;52.480;13.422;2023-12-20T08:40:31;5.67;;;1.37;;
3491;SDS011;1760;52.480;13.422;2023-12-20T08:42:58;5.80;;;1.33;;
3491;SDS011;1760;52.480;13.422;2023-12-20T08:45:25;4.97;;;2.23;;
3491;SDS011;1760;52.480;13.422;2023-12-20T08:47:52;2.10;;;1.10;;
3491;SDS011;1760;52.480;13.422;2023-12-20T08:50:19;3.00;;;1.20;;
3491;SDS011;1760;52.480;13.422;2023-12-20T08:52:45;3.00;;;1.27;;
3491;SDS011;1760;52.480;13.422;2023-12-20T08:55:12;3.50;;;1.50;;
3491;SDS011;1760;52.480;13.422;2023-12-20T08:57:42;1.90;;;1.40;;
3491;SDS011;1760;52.480;13.422;2023-12-20T09:00:10;3.30;;;1.90;;
3491;SDS011;1760;52.480;13.422;2023-12-20T09:02:37;3.93;;;1.57;;
3491;SDS011;1760;52.480;13.422;2023-12-20T09:05:04;5.20;;;1.33;;
3491;SDS011;1760;52.480;13.422;2023-12-20T09:07:32;4.50;;;1.37;;
3491;SDS011;1760;52.480;13.422;2023-12-20T09:09:58;4.30;;;1.67;;
3491;SDS011;1760;52.480;13.422;2023-12-20T09:12:25;3.37;;;1.57;;
3491;SDS011;1760;52.480;13.422;2023-12-20T09:14:54;3.80;;;1.40;;
3491;SDS011;1760;52.480;13.422;2023-12-20T09:17:20;5.87;;;1.73;;
3491;SDS011;1760;52.480;13.422;2023-12-20T09:19:48;4.80;;;2.07;;
3491;SDS011;1760;52.480;13.422;2023-12-20T09:22:17;5.07;;;2.60;;
3491;SDS011;1760;52.480;13.422;2023-12-20T09:24:44;5.50;;;2.00;;
3491;SDS011;1760;52.480;13.422;2023-12-20T09:27:11;8.30;;;1.50;;
3491;SDS011;1760;52.480;13.422;2023-12-20T09:29:38;4.13;;;1.23;;
3491;SDS011;1760;52.480;13.422;2023-12-20T09:32:06;4.90;;;1.70;;
3491;SDS011;1760;52.480;13.422;2023-12-20T09:34:33;8.23;;;2.00;;
3491;SDS011;1760;52.480;13.422;2023-12-20T09:37:00;2.30;;;1.30;;
3491;SDS011;1760;52.480;13.422;2023-12-20T09:39:28;5.83;;;1.33;;
3491;SDS011;1760;52.480;13.422;2023-12-20T09:41:57;2.73;;;1.17;;
3491;SDS011;1760;52.480;13.422;2023-12-20T09:44:27;4.73;;;2.40;;
3491;SDS011;1760;52.480;13.422;2023-12-20T09:46:54;2.07;;;1.60;;
3491;SDS011;1760;52.480;13.422;2023-12-20T09:49:23;10.17;;;3.83;;
3491;SDS011;1760;52.480;13.422;2023-12-20T09:51:52;16.97;;;5.60;;
3491;SDS011;1760;52.480;13.422;2023-12-20T09:54:20;5.40;;;2.90;;
3491;SDS011;1760;52.480;13.422;2023-12-20T09:56:48;7.03;;;2.00;;
3491;SDS011;1760;52.480;13.422;2023-12-20T09:59:15;7.20;;;1.97;;
3491;SDS011;1760;52.480;13.422;2023-12-20T10:01:42;4.33;;;2.10;;
3491;SDS011;1760;52.480;13.422;2023-12-20T10:04:09;2.60;;;1.40;;
3491;SDS011;1760;52.480;13.422;2023-12-20T10:06:40;8.27;;;2.70;;
3491;SDS011;1760;52.480;13.422;2023-12-20T10:09:07;4.20;;;1.80;;
3491;SDS011;1760;52.480;13.422;2023-12-20T10:11:35;4.30;;;2.00;;
3491;SDS011;1760;52.480;13.422;2023-12-20T10:14:03;6.23;;;2.23;;
3491;SDS011;1760;52.480;13.422;2023-12-20T10:16:30;5.57;;;1.73;;
3491;SDS011;1760;52.480;13.422;2023-12-20T10:18:58;3.53;;;1.87;;
3491;SDS011;1760;52.480;13.422;2023-12-20T10:21:26;2.03;;;1.30;;
3491;SDS011;1760;52.480;13.422;2023-12-20T10:23:55;10.83;;;2.70;;
3491;SDS011;1760;52.480;13.422;2023-12-20T10:26:22;5.87;;;1.60;;
3491;SDS011;1760;52.480;13.422;2023-12-20T10:28:50;2.50;;;1.43;;
3491;SDS011;1760;52.480;13.422;2023-12-20T10:31:29;3.73;;;1.40;;
3491;SDS011;1760;52.480;13.422;2023-12-20T10:33:57;3.87;;;2.10;;
3491;SDS011;1760;52.480;13.422;2023-12-20T10:36:25;3.27;;;2.00;;
3491;SDS011;1760;52.480;13.422;2023-12-20T10:38:53;2.80;;;2.07;;
3491;SDS011;1760;52.480;13.422;2023-12-20T10:41:24;7.80;;;2.00;;
3491;SDS011;1760;52.480;13.422;2023-12-20T10:43:54;5.07;;;1.77;;
3491;SDS011;1760;52.480;13.422;2023-12-20T10:46:24;5.43;;;1.80;;
3491;SDS011;1760;52.480;13.422;2023-12-20T10:48:53;8.60;;;1.80;;
3491;SDS011;1760;52.480;13.422;2023-12-20T10:51:21;2.67;;;1.93;;
3491;SDS011;1760;52.480;13.422;2023-12-20T10:53:51;4.73;;;1.70;;
3491;SDS011;1760;52.480;13.422;2023-12-20T10:56:20;1.70;;;1.10;;
3491;SDS011;1760;52.480;13.422;2023-12-20T10:58:48;9.27;;;1.90;;
3491;SDS011;1760;52.480;13.422;2023-12-20T11:01:17;14.97;;;2.17;;
3491;SDS011;1760;52.480;13.422;2023-12-20T11:03:48;5.47;;;1.77;;
3491;SDS011;1760;52.480;13.422;2023-12-20T11:06:20;5.23;;;1.97;;
3491;SDS011;1760;52.480;13.422;2023-12-20T11:08:55;3.77;;;2.00;;
3491;SDS011;1760;52.480;13.422;2023-12-20T11:11:37;3.40;;;1.93;;
3491;SDS011;1760;52.480;13.422;2023-12-20T11:14:14;8.97;;;3.37;;
3491;SDS011;1760;52.480;13.422;2023-12-20T11:16:42;11.27;;;2.60;;
3491;SDS011;1760;52.480;13.422;2023-12-20T11:19:09;4.73;;;2.00;;
3491;SDS011;1760;52.480;13.422;2023-12-20T11:21:39;2.73;;;1.77;;
3491;SDS011;1760;52.480;13.422;2023-12-20T11:24:06;3.77;;;1.87;;
3491;SDS011;1760;52.480;13.422;2023-12-20T11:26:33;8.33;;;2.53;;
3491;SDS011;1760;52.480;13.422;2023-12-20T11:32:02;10.20;;;2.13;;
3491;SDS011;1760;52.480;13.422;2023-12-20T11:34:32;8.03;;;2.10;;
3491;SDS011;1760;52.480;13.422;2023-12-20T11:37:02;15.63;;;2.60;;
3491;SDS011;1760;52.480;13.422;2023-12-20T11:39:29;5.50;;;2.50;;
3491;SDS011;1760;52.480;13.422;2023-12-20T11:41:57;8.63;;;2.03;;
3491;SDS011;1760;52.480;13.422;2023-12-20T11:44:31;8.20;;;2.30;;
3491;SDS011;1760;52.480;13.422;2023-12-20T11:46:59;8.43;;;2.03;;
3491;SDS011;1760;52.480;13.422;2023-12-20T11:49:26;7.97;;;2.30;;
3491;SDS011;1760;52.480;13.422;2023-12-20T11:51:54;12.67;;;1.97;;
3491;SDS011;1760;52.480;13.422;2023-12-20T11:54:21;11.07;;;3.43;;
3491;SDS011;1760;52.480;13.422;2023-12-20T11:56:48;9.90;;;4.07;;
3491;SDS011;1760;52.480;13.422;2023-12-20T11:59:15;4.40;;;1.83;;
3491;SDS011;1760;52.480;13.422;2023-12-20T12:01:47;7.30;;;2.10;;
3491;SDS011;1760;52.480;13.422;2023-12-20T12:04:16;4.10;;;1.70;;
3491;SDS011;1760;52.480;13.422;2023-12-20T12:06:43;4.50;;;1.80;;
3491;SDS011;1760;52.480;13.422;2023-12-20T12:09:10;4.60;;;2.03;;
3491;SDS011;1760;52.480;13.422;2023-12-20T12:11:37;3.07;;;2.43;;
3491;SDS011;1760;52.480;13.422;2023-12-20T12:14:04;3.53;;;1.90;;
3491;SDS011;1760;52.480;13.422;2023-12-20T12:16:33;7.80;;;1.73;;
3491;SDS011;1760;52.480;13.422;2023-12-20T12:19:00;2.60;;;1.73;;
3491;SDS011;1760;52.480;13.422;2023-12-20T12:21:28;12.20;;;2.43;;
3491;SDS011;1760;52.480;13.422;2023-12-20T12:24:00;8.70;;;2.50;;
3491;SDS011;1760;52.480;13.422;2023-12-20T12:26:33;4.93;;;2.80;;
3491;SDS011;1760;52.480;13.422;2023-12-20T12:28:59;8.67;;;1.53;;
3491;SDS011;1760;52.480;13.422;2023-12-20T12:31:26;1.90;;;1.20;;
3491;SDS011;1760;52.480;13.422;2023-12-20T12:33:53;9.57;;;1.67;;
3491;SDS011;1760;52.480;13.422;2023-12-20T12:36:20;5.03;;;1.60;;
3491;SDS011;1760;52.480;13.422;2023-12-20T12:38:48;3.67;;;1.80;;
3491;SDS011;1760;52.480;13.422;2023-12-20T12:41:15;5.80;;;1.50;;
3491;SDS011;1760;52.480;13.422;2023-12-20T12:43:42;3.73;;;1.50;;
3491;SDS011;1760;52.480;13.422;2023-12-20T12:46:09;10.90;;;2.17;;
3491;SDS011;1760;52.480;13.422;2023-12-20T12:48:36;6.57;;;3.50;;
3491;SDS011;1760;52.480;13.422;2023-12-20T12:51:04;13.80;;;5.27;;
3491;SDS011;1760;52.480;13.422;2023-12-20T12:53:32;6.20;;;1.93;;
3491;SDS011;1760;52.480;13.422;2023-12-20T12:56:00;7.03;;;3.07;;
3491;SDS011;1760;52.480;13.422;2023-12-20T12:58:27;8.70;;;3.10;;
3491;SDS011;1760;52.480;13.422;2023-12-20T13:00:54;6.50;;;3.80;;
3491;SDS011;1760;52.480;13.422;2023-12-20T13:03:21;10.50;;;5.50;;
3491;SDS011;1760;52.480;13.422;2023-12-20T13:05:49;5.23;;;2.50;;
3491;SDS011;1760;52.480;13.422;2023-12-20T13:08:16;3.73;;;1.77;;
3491;SDS011;1760;52.480;13.422;2023-12-20T13:10:43;2.57;;;1.50;;
3491;SDS011;1760;52.480;13.422;2023-12-20T13:13:11;1.80;;;1.67;;
3491;SDS011;1760;52.480;13.422;2023-12-20T13:15:38;3.63;;;2.23;;
3491;SDS011;1760;52.480;13.422;2023-12-20T13:18:05;9.50;;;1.90;;
3491;SDS011;1760;52.480;13.422;2023-12-20T13:20:32;3.60;;;1.60;;
3491;SDS011;1760;52.480;13.422;2023-12-20T13:22:59;2.70;;;1.60;;
3491;SDS011;1760;52.480;13.422;2023-12-20T13:25:26;10.20;;;2.10;;
3491;SDS011;1760;52.480;13.422;2023-12-20T13:27:53;4.20;;;2.07;;
3491;SDS011;1760;52.480;13.422;2023-12-20T13:30:22;4.67;;;1.80;;
3491;SDS011;1760;52.480;13.422;2023-12-20T13:32:49;5.23;;;2.03;;
3491;SDS011;1760;52.480;13.422;2023-12-20T13:35:15;1.93;;;1.33;;
3491;SDS011;1760;52.480;13.422;2023-12-20T13:37:42;4.63;;;1.60;;
3491;SDS011;1760;52.480;13.422;2023-12-20T13:40:10;2.67;;;1.00;;
3491;SDS011;1760;52.480;13.422;2023-12-20T13:42:37;1.30;;;1.00;;
3491;SDS011;1760;52.480;13.422;2023-12-20T13:45:04;5.30;;;1.10;;
3491;SDS011;1760;52.480;13.422;2023-12-20T13:47:34;4.97;;;1.50;;
3491;SDS011;1760;52.480;13.422;2023-12-20T13:50:01;1.20;;;0.87;;
3491;SDS011;1760;52.480;13.422;2023-12-20T13:52:29;3.00;;;1.10;;
3491;SDS011;1760;52.480;13.422;2023-12-20T13:54:55;1.10;;;0.80;;
3491;SDS011;1760;52.480;13.422;2023-12-20T13:57:22;5.70;;;1.63;;
3491;SDS011;1760;52.480;13.422;2023-12-20T13:59:49;1.40;;;1.27;;
3491;SDS011;1760;52.480;13.422;2023-12-20T14:02:16;2.07;;;1.30;;
3491;SDS011;1760;52.480;13.422;2023-12-20T14:04:44;3.10;;;1.40;;
3491;SDS011;1760;52.480;13.422;2023-12-20T14:07:11;2.63;;;1.30;;
3491;SDS011;1760;52.480;13.422;2023-12-20T14:09:38;3.80;;;1.60;;
3491;SDS011;1760;52.480;13.422;2023-12-20T14:12:10;1.13;;;0.80;;
3491;SDS011;1760;52.480;13.422;2023-12-20T14:14:37;1.13;;;0.90;;
3491;SDS011;1760;52.480;13.422;2023-12-20T14:17:04;1.33;;;0.80;;
3491;SDS011;1760;52.480;13.422;2023-12-20T14:19:31;1.73;;;0.80;;
3491;SDS011;1760;52.480;13.422;2023-12-20T14:21:59;1.63;;;1.13;;
3491;SDS011;1760;52.480;13.422;2023-12-20T14:24:27;1.00;;;0.70;;
3491;SDS011;1760;52.480;13.422;2023-12-20T14:26:54;3.60;;;0.90;;
3491;SDS011;1760;52.480;13.422;2023-12-20T14:29:21;1.80;;;0.70;;
3491;SDS011;1760;52.480;13.422;2023-12-20T14:31:47;2.63;;;1.07;;
3491;SDS011;1760;52.480;13.422;2023-12-20T14:34:15;1.43;;;0.83;;
3491;SDS011;1760;52.480;13.422;2023-12-20T14:36:42;1.73;;;0.80;;
3491;SDS011;1760;52.480;13.422;2023-12-20T14:39:10;1.23;;;0.70;;
3491;SDS011;1760;52.480;13.422;2023-12-20T14:41:38;1.50;;;0.93;;
3491;SDS011;1760;52.480;13.422;2023-12-20T14:44:06;1.60;;;0.73;;
3491;SDS011;1760;52.480;13.422;2023-12-20T14:46:32;1.80;;;1.00;;
3491;SDS011;1760;52.480;13.422;2023-12-20T14:48:59;1.27;;;1.07;;
3491;SDS011;1760;52.480;13.422;2023-12-20T14:51:28;2.10;;;0.70;;
3491;SDS011;1760;52.480;13.422;2023-12-20T14:53:55;1.10;;;0.77;;
3491;SDS011;1760;52.480;13.422;2023-12-20T14:56:24;3.90;;;1.03;;
3491;SDS011;1760;52.480;13.422;2023-12-20T14:58:51;6.50;;;2.73;;
3491;SDS011;1760;52.480;13.422;2023-12-20T15:01:18;1.87;;;0.90;;
3491;SDS011;1760;52.480;13.422;2023-12-20T15:03:46;3.40;;;1.13;;
3491;SDS011;1760;52.480;13.422;2023-12-20T15:06:13;1.60;;;1.03;;